createdAt,value
2017-11-22T00:00:39.384Z,99255.32
2017-11-22T00:03:05.746Z,99256.69
2017-11-22T00:05:36.994Z,99251.75
2017-11-22T00:08:03.315Z,99254.31
2017-11-22T00:10:29.641Z,99250.62
2017-11-22T00:12:56.041Z,99237.03
2017-11-22T00:15:23.708Z,99257.70
2017-11-22T00:17:50.888Z,99262.34
2017-11-22T00:20:17.290Z,99266.75
2017-11-22T00:22:43.779Z,99256.16
2017-11-22T00:25:10.179Z,99261.66
2017-11-22T00:27:36.461Z,99263.44
2017-11-22T00:30:03.664Z,99273.89
2017-11-22T00:32:30.006Z,99269.13
2017-11-22T00:34:56.326Z,99274.39
2017-11-22T00:37:22.654Z,99273.41
2017-11-22T00:39:49.130Z,99274.84
2017-11-22T00:42:15.442Z,99242.09
2017-11-22T00:44:41.771Z,99271.95
2017-11-22T00:47:08.123Z,99272.73
2017-11-22T00:49:34.453Z,99273.17
2017-11-22T00:52:00.844Z,99271.77
2017-11-22T00:54:27.259Z,99288.28
2017-11-22T00:56:53.693Z,99290.60
2017-11-22T00:59:20.081Z,99271.68
2017-11-22T01:01:46.414Z,99281.52
2017-11-22T01:04:12.730Z,99272.48
2017-11-22T01:06:39.114Z,99285.73
2017-11-22T01:09:05.476Z,99278.02
2017-11-22T01:11:31.804Z,99282.48
2017-11-22T01:13:58.136Z,99291.70
2017-11-22T01:16:24.503Z,99272.93
2017-11-22T01:18:50.813Z,99271.45
2017-11-22T01:21:17.205Z,99274.77
2017-11-22T01:23:44.313Z,99284.36
2017-11-22T01:26:10.684Z,99283.02
2017-11-22T01:28:37.019Z,99278.26
2017-11-22T01:31:03.352Z,99264.55
2017-11-22T01:33:29.680Z,99274.72
2017-11-22T01:35:56.758Z,99260.53
2017-11-22T01:38:23.122Z,99278.26
2017-11-22T01:40:49.440Z,99258.45
2017-11-22T01:43:15.869Z,99252.91
2017-11-22T01:45:42.230Z,99267.19
2017-11-22T01:48:08.536Z,99270.67
2017-11-22T01:50:34.882Z,99262.58
2017-11-22T01:53:01.176Z,99271.03
2017-11-22T01:55:27.474Z,99278.91
2017-11-22T01:57:53.752Z,99272.22
2017-11-22T02:00:20.078Z,99260.02
2017-11-22T02:02:46.413Z,99261.19
2017-11-22T02:05:12.773Z,99263.68
2017-11-22T02:07:39.093Z,99248.09
2017-11-22T02:10:05.395Z,99254.58
2017-11-22T02:12:31.804Z,99270.45
2017-11-22T02:14:58.550Z,99278.60
2017-11-22T02:17:24.918Z,99296.25
2017-11-22T02:19:51.357Z,99284.55
2017-11-22T02:22:17.687Z,99266.38
2017-11-22T02:24:44.698Z,99275.39
2017-11-22T02:27:11.006Z,99276.02
2017-11-22T02:29:37.297Z,99287.02
2017-11-22T02:32:03.633Z,99256.85
2017-11-22T02:34:30.013Z,99286.25
2017-11-22T02:36:56.398Z,99267.05
2017-11-22T02:39:22.757Z,99300.63
2017-11-22T02:41:49.806Z,99270.48
2017-11-22T02:44:16.110Z,99274.33
2017-11-22T02:46:42.409Z,99267.27
2017-11-22T02:49:08.770Z,99255.96
2017-11-22T02:51:35.101Z,99245.23
2017-11-22T02:54:01.408Z,99235.89
2017-11-22T02:56:27.766Z,99224.86
2017-11-22T02:58:54.226Z,99225.90
2017-11-22T03:01:20.604Z,99219.97
2017-11-22T03:03:46.961Z,99226.16
2017-11-22T03:06:13.259Z,99226.25
2017-11-22T03:08:39.597Z,99235.42
2017-11-22T03:11:05.913Z,99218.05
2017-11-22T03:13:32.218Z,99222.95
2017-11-22T03:15:59.244Z,99221.45
2017-11-22T03:18:25.583Z,99253.22
2017-11-22T03:20:51.912Z,99242.16
2017-11-22T03:23:18.976Z,99249.66
2017-11-22T03:25:45.366Z,99238.97
2017-11-22T03:28:11.655Z,99256.47
2017-11-22T03:30:39.083Z,99240.37
2017-11-22T03:33:05.383Z,99235.83
2017-11-22T03:35:31.710Z,99241.84
2017-11-22T03:37:58.098Z,99249.16
2017-11-22T03:40:24.443Z,99249.23
2017-11-22T03:42:51.012Z,99260.65
2017-11-22T03:45:17.335Z,99275.25
2017-11-22T03:47:43.701Z,99275.22
2017-11-22T03:50:14.804Z,99264.91
2017-11-22T03:52:42.048Z,99256.54
2017-11-22T03:55:08.441Z,99254.45
2017-11-22T03:57:34.800Z,99250.19
2017-11-22T04:00:01.135Z,99245.43
2017-11-22T04:02:29.339Z,99259.27
2017-11-22T04:04:55.735Z,99248.05
2017-11-22T04:07:22.130Z,99249.81
2017-11-22T04:09:48.489Z,99253.70
2017-11-22T04:12:14.835Z,99253.34
2017-11-22T04:14:41.171Z,99249.52
2017-11-22T04:17:07.519Z,99247.81
2017-11-22T04:19:38.669Z,99244.06
2017-11-22T04:22:05.039Z,99255.08
2017-11-22T04:24:31.409Z,99257.05
2017-11-22T04:26:57.763Z,99271.00
2017-11-22T04:29:24.118Z,99277.32
2017-11-22T04:31:50.444Z,99280.36
2017-11-22T04:34:16.766Z,99279.27
2017-11-22T04:36:43.091Z,99282.49
2017-11-22T04:39:09.420Z,99285.80
2017-11-22T04:41:35.756Z,99284.63
2017-11-22T04:44:02.043Z,99281.93
2017-11-22T04:46:29.058Z,99282.07
2017-11-22T04:48:55.351Z,99287.48
2017-11-22T04:51:21.644Z,99288.55
2017-11-22T04:53:48.766Z,99293.02
2017-11-22T04:56:15.070Z,99288.91
2017-11-22T04:58:41.373Z,99289.69
2017-11-22T05:01:07.653Z,99277.81
2017-11-22T05:03:34.003Z,99270.20
2017-11-22T05:06:00.358Z,99255.72
2017-11-22T05:08:26.645Z,99254.64
2017-11-22T05:10:53.079Z,99234.42
2017-11-22T05:13:19.451Z,99232.51
2017-11-22T05:15:46.537Z,99235.92
2017-11-22T05:18:12.894Z,99236.66
2017-11-22T05:20:39.258Z,99241.09
2017-11-22T05:23:06.284Z,99228.20
2017-11-22T05:25:32.633Z,99238.69
2017-11-22T05:27:59.710Z,99227.54
2017-11-22T05:30:26.088Z,99236.74
2017-11-22T05:32:52.461Z,99245.99
2017-11-22T05:35:18.936Z,99246.25
2017-11-22T05:37:45.244Z,99246.83
2017-11-22T05:40:11.569Z,99252.59
2017-11-22T05:42:37.923Z,99248.20
2017-11-22T05:45:04.187Z,99221.14
2017-11-22T05:47:37.601Z,99224.75
2017-11-22T05:50:04.672Z,99225.42
2017-11-22T05:52:30.954Z,99212.00
2017-11-22T05:54:57.297Z,99219.94
2017-11-22T05:57:23.616Z,99217.81
2017-11-22T05:59:50.006Z,99221.73
2017-11-22T06:02:16.390Z,99216.81
2017-11-22T06:04:42.684Z,99193.05
2017-11-22T06:07:09.022Z,99209.20
2017-11-22T06:09:35.334Z,99204.39
2017-11-22T06:12:01.677Z,99193.95
2017-11-22T06:14:28.040Z,99191.50
2017-11-22T06:16:55.190Z,99206.22
2017-11-22T06:19:21.527Z,99206.70
2017-11-22T06:21:54.798Z,99217.87
2017-11-22T06:24:21.152Z,99210.09
2017-11-22T06:26:47.474Z,99214.36
2017-11-22T06:29:13.826Z,99222.13
2017-11-22T06:31:40.157Z,99212.70
2017-11-22T06:34:07.228Z,99223.14
2017-11-22T06:36:33.519Z,99229.41
2017-11-22T06:39:04.846Z,99229.44
2017-11-22T06:41:31.984Z,99238.50
2017-11-22T06:43:58.331Z,99255.34
2017-11-22T06:46:24.682Z,99254.94
2017-11-22T06:48:50.997Z,99253.59
2017-11-22T06:51:17.354Z,99261.14
2017-11-22T06:53:43.660Z,99264.70
2017-11-22T06:56:10.022Z,99264.47
2017-11-22T06:58:37.076Z,99262.05
2017-11-22T07:01:03.950Z,99254.61
2017-11-22T07:03:32.430Z,99249.95
2017-11-22T07:05:58.824Z,99256.05
2017-11-22T07:08:25.227Z,99261.31
2017-11-22T07:10:51.557Z,99249.14
2017-11-22T07:13:17.886Z,99256.09
2017-11-22T07:15:44.322Z,99246.20
2017-11-22T07:18:10.703Z,99249.20
2017-11-22T07:20:37.791Z,99251.96
2017-11-22T07:23:04.163Z,99259.40
2017-11-22T07:25:31.261Z,99253.61
2017-11-22T07:27:57.591Z,99271.95
2017-11-22T07:30:23.882Z,99265.46
2017-11-22T07:32:50.849Z,99253.52
2017-11-22T07:35:17.952Z,99258.75
2017-11-22T07:37:50.108Z,99266.94
2017-11-22T07:40:16.398Z,99257.27
2017-11-22T07:42:42.825Z,99275.07
2017-11-22T07:45:09.834Z,99252.05
2017-11-22T07:47:36.211Z,99258.98
2017-11-22T07:50:02.506Z,99250.16
2017-11-22T07:52:28.809Z,99258.20
2017-11-22T07:54:55.200Z,99254.63
2017-11-22T07:57:26.199Z,99250.25
2017-11-22T07:59:52.533Z,99262.05
2017-11-22T08:02:18.880Z,99280.48
2017-11-22T08:04:45.207Z,99279.25
2017-11-22T08:07:11.511Z,99279.92
2017-11-22T08:09:38.564Z,99294.06
2017-11-22T08:12:05.829Z,99294.42
2017-11-22T08:14:32.162Z,99285.70
2017-11-22T08:17:01.463Z,99289.48
2017-11-22T08:19:27.877Z,99290.72
2017-11-22T08:21:54.218Z,99288.82
2017-11-22T08:24:20.983Z,99286.69
2017-11-22T08:26:47.291Z,99299.72
2017-11-22T08:29:13.614Z,99291.52
2017-11-22T08:31:40.689Z,99267.89
2017-11-22T08:34:07.069Z,99273.77
2017-11-22T08:36:33.465Z,99282.23
2017-11-22T08:39:00.558Z,99281.11
2017-11-22T08:41:26.867Z,99293.03
2017-11-22T08:43:54.913Z,99302.58
2017-11-22T08:46:21.282Z,99289.81
2017-11-22T08:48:47.970Z,99308.56
2017-11-22T08:51:14.278Z,99307.59
2017-11-22T08:53:40.628Z,99317.63
2017-11-22T08:56:12.967Z,99319.47
2017-11-22T08:58:39.237Z,99316.53
2017-11-22T09:01:06.318Z,99314.52
2017-11-22T09:03:39.843Z,99320.77
2017-11-22T09:06:12.246Z,99325.13
2017-11-22T09:08:38.662Z,99319.24
2017-11-22T09:11:04.946Z,99317.45
2017-11-22T09:13:32.081Z,99328.45
2017-11-22T09:15:58.458Z,99330.87
2017-11-22T09:18:30.696Z,99344.55
2017-11-22T09:20:57.895Z,99332.09
2017-11-22T09:23:24.312Z,99346.95
2017-11-22T09:25:50.593Z,99356.30
2017-11-22T09:28:16.926Z,99362.86
2017-11-22T09:30:49.493Z,99373.90
2017-11-22T09:33:16.787Z,99343.60
2017-11-22T09:35:43.087Z,99356.62
2017-11-22T09:38:09.379Z,99368.26
2017-11-22T09:40:35.728Z,99371.59
2017-11-22T09:43:02.121Z,99365.36
2017-11-22T09:45:28.498Z,99378.20
2017-11-22T09:47:54.828Z,99372.16
2017-11-22T09:50:21.255Z,99377.05
2017-11-22T09:52:47.622Z,99363.78
2017-11-22T09:55:14.036Z,99369.69
2017-11-22T09:57:40.419Z,99357.73
2017-11-22T10:00:06.686Z,99355.49
2017-11-22T10:02:32.979Z,99354.77
2017-11-22T10:04:59.279Z,99359.05
2017-11-22T10:07:26.335Z,99327.55
2017-11-22T10:09:53.392Z,99353.94
2017-11-22T10:12:21.562Z,99339.98
2017-11-22T10:14:48.658Z,99352.50
2017-11-22T10:17:15.296Z,99347.42
2017-11-22T10:19:42.797Z,99351.09
2017-11-22T10:22:09.898Z,99345.86
2017-11-22T10:24:42.503Z,99352.38
2017-11-22T10:27:15.139Z,99343.08
2017-11-22T10:29:45.492Z,99345.70
2017-11-22T10:32:17.950Z,99359.37
2017-11-22T10:34:44.308Z,99339.27
2017-11-22T10:37:10.600Z,99340.55
2017-11-22T10:39:37.198Z,99341.64
2017-11-22T10:42:03.530Z,99340.86
2017-11-22T10:44:29.854Z,99342.11
2017-11-22T10:46:56.181Z,99339.43
2017-11-22T10:49:22.558Z,99339.50
2017-11-22T10:51:48.924Z,99343.33
2017-11-22T10:54:15.297Z,99336.94
2017-11-22T10:56:42.455Z,99354.00
2017-11-22T10:59:09.657Z,99350.47
2017-11-22T11:01:36.123Z,99359.95
2017-11-22T11:04:02.452Z,99352.80
2017-11-22T11:06:28.748Z,99368.65
2017-11-22T11:08:55.167Z,99349.05
2017-11-22T11:11:21.467Z,99351.97
2017-11-22T11:13:47.879Z,99348.79
2017-11-22T11:16:14.200Z,99367.09
2017-11-22T11:18:40.608Z,99350.28
2017-11-22T11:21:06.966Z,99343.80
2017-11-22T11:23:33.348Z,99339.92
2017-11-22T11:25:59.722Z,99343.23
2017-11-22T11:28:26.233Z,99337.30
2017-11-22T11:30:52.546Z,99334.12
2017-11-22T11:33:18.914Z,99338.63
2017-11-22T11:36:03.702Z,99345.80
2017-11-22T11:38:30.137Z,99338.67
2017-11-22T11:40:56.639Z,99341.89
2017-11-22T11:43:22.997Z,99349.69
2017-11-22T11:45:49.304Z,99351.02
2017-11-22T11:48:15.717Z,99351.84
2017-11-22T11:50:42.022Z,99326.55
2017-11-22T11:53:09.143Z,99350.59
2017-11-22T11:55:35.492Z,99341.09
2017-11-22T11:58:01.878Z,99341.59
2017-11-22T12:00:28.941Z,99343.95
2017-11-22T12:02:55.359Z,99333.45
2017-11-22T12:05:21.750Z,99335.94
2017-11-22T12:07:48.140Z,99335.86
2017-11-22T12:10:14.448Z,99332.52
2017-11-22T12:12:40.807Z,99334.89
2017-11-22T12:15:07.218Z,99341.72
2017-11-22T12:17:35.397Z,99343.18
2017-11-22T12:20:01.749Z,99348.81
2017-11-22T12:22:33.794Z,99345.09
2017-11-22T12:25:00.211Z,99351.90
2017-11-22T12:27:26.840Z,99353.21
2017-11-22T12:29:53.656Z,99351.42
2017-11-22T12:32:21.897Z,99347.61
2017-11-22T12:34:55.418Z,99352.50
2017-11-22T12:37:21.875Z,99340.84
2017-11-22T12:39:48.405Z,99348.81
2017-11-22T12:42:14.756Z,99350.75
2017-11-22T12:44:41.295Z,99356.23
2017-11-22T12:47:07.795Z,99351.88
2017-11-22T12:49:34.950Z,99344.46
2017-11-22T12:52:02.173Z,99347.27
2017-11-22T12:54:28.532Z,99341.73
2017-11-22T12:56:54.926Z,99342.64
2017-11-22T12:59:21.236Z,99341.56
2017-11-22T13:01:47.560Z,99337.75
2017-11-22T13:04:13.921Z,99346.13
2017-11-22T13:06:40.316Z,99342.62
2017-11-22T13:09:06.614Z,99344.67
2017-11-22T13:11:34.303Z,99337.73
2017-11-22T13:14:06.963Z,99345.48
2017-11-22T13:16:34.214Z,99340.30
2017-11-22T13:19:00.525Z,99338.87
2017-11-22T13:21:26.998Z,99341.99
2017-11-22T13:23:53.314Z,99341.11
2017-11-22T13:26:20.356Z,99349.96
2017-11-22T13:28:47.094Z,99349.84
2017-11-22T13:31:13.517Z,99352.38
2017-11-22T13:33:39.877Z,99356.20
2017-11-22T13:36:06.294Z,99346.64
2017-11-22T13:38:33.511Z,99357.22
2017-11-22T13:41:00.232Z,99350.78
2017-11-22T13:43:26.554Z,99351.78
2017-11-22T13:45:52.831Z,99351.94
2017-11-22T13:48:19.174Z,99352.94
2017-11-22T13:50:45.576Z,99348.15
2017-11-22T13:53:12.857Z,99342.91
2017-11-22T13:55:39.513Z,99344.80
2017-11-22T13:58:06.584Z,99356.27
2017-11-22T14:00:32.945Z,99349.77
2017-11-22T14:02:59.385Z,99347.91
2017-11-22T14:05:25.843Z,99352.34
2017-11-22T14:07:52.583Z,99362.81
2017-11-22T14:10:19.321Z,99353.28
2017-11-22T14:12:45.873Z,99353.48
2017-11-22T14:15:13.110Z,99352.02
2017-11-22T14:17:39.446Z,99343.40
2017-11-22T14:20:07.155Z,99338.21
2017-11-22T14:22:33.474Z,99335.70
2017-11-22T14:24:59.886Z,99332.60
2017-11-22T14:27:26.198Z,99334.41
2017-11-22T14:29:52.718Z,99317.81
2017-11-22T14:32:19.095Z,99333.50
2017-11-22T14:34:45.401Z,99330.80
2017-11-22T14:37:11.720Z,99332.30
2017-11-22T14:39:38.891Z,99326.33
2017-11-22T14:42:06.182Z,99329.90
2017-11-22T14:44:32.564Z,99323.58
2017-11-22T14:46:58.980Z,99331.28
2017-11-22T14:49:25.357Z,99335.44
2017-11-22T14:51:52.485Z,99330.05
2017-11-22T14:54:18.993Z,99330.06
2017-11-22T14:56:45.337Z,99334.39
2017-11-22T14:59:11.702Z,99335.36
2017-11-22T15:01:38.224Z,99332.45
2017-11-22T15:04:04.638Z,99317.41
2017-11-22T15:06:31.116Z,99326.45
2017-11-22T15:08:57.526Z,99329.27
2017-11-22T15:11:23.838Z,99320.42
2017-11-22T15:13:50.190Z,99319.61
2017-11-22T15:16:16.543Z,99315.11
2017-11-22T15:18:43.158Z,99317.17
2017-11-22T15:21:09.497Z,99318.84
2017-11-22T15:23:36.286Z,99325.33
2017-11-22T15:26:03.663Z,99319.80
2017-11-22T15:28:30.541Z,99322.64
2017-11-22T15:30:57.115Z,99319.39
2017-11-22T15:33:24.302Z,99320.30
2017-11-22T15:35:50.628Z,99318.35
2017-11-22T15:38:16.917Z,99324.09
2017-11-22T15:40:43.271Z,99319.38
2017-11-22T15:43:09.649Z,99321.77
2017-11-22T15:45:35.979Z,99324.41
2017-11-22T15:48:02.288Z,99325.05
2017-11-22T15:50:28.730Z,99327.80
2017-11-22T15:52:55.426Z,99330.72
2017-11-22T15:55:22.308Z,99326.27
2017-11-22T15:57:48.777Z,99329.97
2017-11-22T16:00:15.495Z,99331.22
2017-11-22T16:02:42.502Z,99340.40
2017-11-22T16:05:09.039Z,99330.72
2017-11-22T16:07:35.360Z,99334.04
2017-11-22T16:10:01.727Z,99335.81
2017-11-22T16:12:28.813Z,99335.44
2017-11-22T16:14:56.179Z,99334.41
2017-11-22T16:17:23.736Z,99331.52
2017-11-22T16:19:50.145Z,99339.37
2017-11-22T16:22:16.620Z,99332.66
2017-11-22T16:24:42.957Z,99327.03
2017-11-22T16:27:09.287Z,99329.20
2017-11-22T16:29:35.615Z,99326.83
2017-11-22T16:32:02.011Z,99323.52
2017-11-22T16:34:28.500Z,99322.89
2017-11-22T16:36:54.843Z,99324.29
2017-11-22T16:39:21.115Z,99319.88
2017-11-22T16:41:48.154Z,99323.94
2017-11-22T16:44:14.556Z,99315.41
2017-11-22T16:46:40.917Z,99320.69
2017-11-22T16:49:07.272Z,99326.19
2017-11-22T16:51:33.615Z,99325.06
2017-11-22T16:53:59.980Z,99331.37
2017-11-22T16:56:26.379Z,99329.30
2017-11-22T16:58:52.892Z,99325.45
2017-11-22T17:01:19.319Z,99324.63
2017-11-22T17:03:45.963Z,99320.23
2017-11-22T17:06:12.994Z,99313.91
2017-11-22T17:08:39.833Z,99319.31
2017-11-22T17:11:06.848Z,99314.83
2017-11-22T17:13:33.226Z,99321.11
2017-11-22T17:16:00.183Z,99313.78
2017-11-22T17:18:28.003Z,99318.80
2017-11-22T17:20:54.980Z,99320.82
2017-11-22T17:23:22.625Z,99325.06
2017-11-22T17:25:49.216Z,99320.49
2017-11-22T17:28:15.669Z,99322.44
2017-11-22T17:30:42.060Z,99315.58
2017-11-22T17:33:09.095Z,99321.70
2017-11-22T17:35:35.433Z,99312.91
2017-11-22T17:38:01.874Z,99324.48
2017-11-22T17:40:29.886Z,99323.43
2017-11-22T17:42:56.203Z,99323.73
2017-11-22T17:45:22.575Z,99320.05
2017-11-22T17:47:48.884Z,99325.60
2017-11-22T17:50:15.164Z,99327.58
2017-11-22T17:52:41.560Z,99323.59
2017-11-22T17:55:07.901Z,99328.86
2017-11-22T17:57:34.818Z,99325.09
2017-11-22T18:00:01.760Z,99321.45
2017-11-22T18:02:28.499Z,99312.35
2017-11-22T18:04:55.707Z,99315.14
2017-11-22T18:07:22.749Z,99322.03
2017-11-22T18:09:49.100Z,99319.11
2017-11-22T18:12:16.212Z,99310.73
2017-11-22T18:14:42.712Z,99321.22
2017-11-22T18:17:09.159Z,99323.44
2017-11-22T18:19:35.538Z,99322.20
2017-11-22T18:22:03.714Z,99321.13
2017-11-22T18:24:30.845Z,99312.71
2017-11-22T18:26:57.196Z,99314.80
2017-11-22T18:29:23.688Z,99315.16
2017-11-22T18:31:50.088Z,99311.38
2017-11-22T18:34:16.378Z,99311.58
2017-11-22T18:36:42.807Z,99318.65
2017-11-22T18:39:09.888Z,99317.46
2017-11-22T18:41:36.932Z,99321.14
2017-11-22T18:44:03.983Z,99327.66
2017-11-22T18:46:31.060Z,99324.13
2017-11-22T18:48:57.798Z,99316.45
2017-11-22T18:51:24.218Z,99315.16
2017-11-22T18:53:50.610Z,99313.55
2017-11-22T18:56:16.941Z,99312.35
2017-11-22T18:58:43.403Z,99311.84
2017-11-22T19:01:10.932Z,99313.01
2017-11-22T19:03:37.706Z,99311.11
2017-11-22T19:06:04.942Z,99305.91
2017-11-22T19:08:31.771Z,99305.20
2017-11-22T19:10:58.110Z,99305.77
2017-11-22T19:13:25.182Z,99301.81
2017-11-22T19:15:51.865Z,99311.67
2017-11-22T19:18:18.481Z,99308.66
2017-11-22T19:20:44.827Z,99316.47
2017-11-22T19:23:11.602Z,99317.91
2017-11-22T19:25:37.923Z,99321.50
2017-11-22T19:28:05.008Z,99318.89
2017-11-22T19:30:32.146Z,99319.36
2017-11-22T19:32:58.821Z,99316.80
2017-11-22T19:35:25.158Z,99316.88
2017-11-22T19:37:51.535Z,99318.84
2017-11-22T19:40:18.516Z,99319.83
2017-11-22T19:42:45.213Z,99324.27
2017-11-22T19:45:11.839Z,99329.35
2017-11-22T19:47:38.602Z,99326.83
2017-11-22T19:50:05.572Z,99327.12
2017-11-22T19:52:32.416Z,99324.98
2017-11-22T19:55:00.359Z,99323.53
2017-11-22T19:57:26.825Z,99322.59
2017-11-22T19:59:53.918Z,99320.92
2017-11-22T20:02:20.282Z,99325.86
2017-11-22T20:04:46.653Z,99320.35
2017-11-22T20:07:31.544Z,99320.45
2017-11-22T20:09:57.899Z,99317.80
2017-11-22T20:12:25.424Z,99315.08
2017-11-22T20:14:53.186Z,99311.33
2017-11-22T20:17:20.787Z,99315.54
2017-11-22T20:19:47.459Z,99309.50
2017-11-22T20:22:14.869Z,99305.97
2017-11-22T20:24:41.927Z,99308.20
2017-11-22T20:27:09.999Z,99315.22
2017-11-22T20:29:36.413Z,99312.98
2017-11-22T20:32:03.608Z,99314.45
2017-11-22T20:34:31.086Z,99314.63
2017-11-22T20:36:58.215Z,99316.20
2017-11-22T20:39:24.564Z,99313.08
2017-11-22T20:41:53.640Z,99316.47
2017-11-22T20:44:20.312Z,99313.55
2017-11-22T20:46:47.585Z,99316.31
2017-11-22T20:49:14.026Z,99315.84
2017-11-22T20:51:40.371Z,99317.84
2017-11-22T20:54:06.759Z,99316.48
2017-11-22T20:56:33.177Z,99311.13
2017-11-22T20:59:00.237Z,99313.50
2017-11-22T21:01:27.314Z,99308.77
2017-11-22T21:03:53.678Z,99301.03
2017-11-22T21:06:20.194Z,99305.38
2017-11-22T21:08:46.518Z,99306.87
2017-11-22T21:11:13.028Z,99307.33
2017-11-22T21:13:40.222Z,99301.30
2017-11-22T21:16:06.530Z,99296.20
2017-11-22T21:18:32.792Z,99305.50
2017-11-22T21:20:59.090Z,99301.53
2017-11-22T21:23:25.392Z,99303.60
2017-11-22T21:25:53.366Z,99315.94
2017-11-22T21:28:19.646Z,99309.05
2017-11-22T21:30:46.055Z,99305.88
2017-11-22T21:33:12.457Z,99299.61
2017-11-22T21:35:38.789Z,99290.20
2017-11-22T21:38:06.009Z,99289.67
2017-11-22T21:40:32.313Z,99295.75
2017-11-22T21:42:58.573Z,99299.69
2017-11-22T21:45:24.893Z,99292.11
2017-11-22T21:47:51.529Z,99298.34
2017-11-22T21:50:17.903Z,99299.22
2017-11-22T21:52:44.986Z,99298.67
2017-11-22T21:55:11.349Z,99293.13
2017-11-22T21:57:37.739Z,99297.77
2017-11-22T22:00:04.040Z,99280.55
2017-11-22T22:02:31.093Z,99285.44
2017-11-22T22:04:57.381Z,99283.87
2017-11-22T22:07:23.683Z,99287.05
2017-11-22T22:09:50.133Z,99277.86
2017-11-22T22:12:16.442Z,99273.70
2017-11-22T22:14:42.806Z,99276.44
2017-11-22T22:17:09.138Z,99287.40
2017-11-22T22:19:35.483Z,99278.84
2017-11-22T22:22:01.943Z,99277.03
2017-11-22T22:24:28.309Z,99268.55
2017-11-22T22:26:54.663Z,99264.26
2017-11-22T22:29:21.043Z,99269.46
2017-11-22T22:31:48.092Z,99269.20
2017-11-22T22:34:15.157Z,99272.13
2017-11-22T22:36:42.141Z,99265.13
2017-11-22T22:39:08.441Z,99263.38
2017-11-22T22:41:34.705Z,99267.67
2017-11-22T22:44:01.032Z,99272.10
2017-11-22T22:46:27.345Z,99265.02
2017-11-22T22:48:53.691Z,99271.09
2017-11-22T22:51:20.042Z,99279.80
2017-11-22T22:53:46.436Z,99273.18
2017-11-22T22:56:12.740Z,99277.98
2017-11-22T22:58:39.832Z,99273.15
2017-11-22T23:01:06.175Z,99266.23
2017-11-22T23:03:32.485Z,99274.27
2017-11-22T23:05:58.792Z,99278.83
2017-11-22T23:08:25.201Z,99272.84
2017-11-22T23:10:52.243Z,99274.14
2017-11-22T23:13:18.498Z,99264.89
2017-11-22T23:15:44.828Z,99267.34
2017-11-22T23:18:11.138Z,99276.69
2017-11-22T23:20:38.230Z,99270.97
2017-11-22T23:23:04.571Z,99270.95
2017-11-22T23:25:30.897Z,99273.91
2017-11-22T23:27:57.273Z,99277.61
2017-11-22T23:30:23.595Z,99272.64
2017-11-22T23:32:49.902Z,99276.64
2017-11-22T23:35:16.211Z,99273.70
2017-11-22T23:37:42.548Z,99276.16
2017-11-22T23:40:08.871Z,99268.38
2017-11-22T23:42:35.281Z,99268.92
2017-11-22T23:45:02.365Z,99273.84
2017-11-22T23:47:28.815Z,99278.52
2017-11-22T23:49:55.147Z,99268.47
2017-11-22T23:52:21.448Z,99278.38
2017-11-22T23:54:47.775Z,99272.34
2017-11-22T23:57:14.125Z,99274.66
2017-11-22T23:59:40.439Z,99268.02
